Check out our new BloomSky Weather System.

Active alerts


No alerts


Thunder radar  blitzortung!


Rain radar more information rain snow radar


Visit our other weather sites:

Template documentation
and downloads

And another site



Weather Underground History page Text

Daily Summary for January 24, 2017 Units:  English    Metric   Both
« Previous Day
Next Day »
Daily Weekly Monthly Yearly Custom
  High: Low: Average:
Temperature: 81.5 °F 48.4 °F 66.5 °F
Dew Point: 66.6 °F 45.0 °F 58.8 °F
Humidity: 96 % 52 % 78 %
Wind Speed: 16.0 mph 0.0 mph 4.8 mph
Wind Gust: 19.0 mph - -
Wind:- - SSE
Pressure: 29.85 in 29.69 in -
Precipitation: 0.00 in    
Historical Graphs
 
 
Tabular Data for January 24, 2017
Time Temperature Dew Point Pressure Wind Wind Speed Wind Gust Humidity Rainfall Rate (Hourly)
00:02 57.0 °F 45.0 °F 29.85 in SW 3.0 mph 5.0 mph 64 % 0.00 in
00:07 57.0 °F 45.0 °F 29.85 in SSW 2.0 mph 5.0 mph 64 % 0.00 in
00:12 56.8 °F 45.1 °F 29.85 in South 2.0 mph 4.0 mph 65 % 0.00 in
00:17 56.8 °F 45.1 °F 29.85 in SW 3.0 mph 4.0 mph 65 % 0.00 in
00:22 56.7 °F 45.0 °F 29.84 in SSW 4.0 mph 4.0 mph 65 % 0.00 in
00:27 56.5 °F 45.3 °F 29.84 in South 2.0 mph 4.0 mph 66 % 0.00 in
00:32 56.3 °F 45.5 °F 29.84 in SSW 4.0 mph 4.0 mph 67 % 0.00 in
00:37 56.3 °F 45.9 °F 29.84 in South 3.0 mph 4.0 mph 68 % 0.00 in
00:42 56.3 °F 46.2 °F 29.83 in SE 2.0 mph 4.0 mph 69 % 0.00 in
00:47 56.3 °F 46.6 °F 29.83 in SSE 2.0 mph 4.0 mph 70 % 0.00 in
00:52 56.3 °F 46.6 °F 29.83 in South 1.0 mph 4.0 mph 70 % 0.00 in
00:57 56.1 °F 47.3 °F 29.83 in South 1.0 mph 4.0 mph 72 % 0.00 in
01:02 56.1 °F 47.7 °F 29.83 in South 1.0 mph 4.0 mph 73 % 0.00 in
01:07 56.1 °F 48.0 °F 29.83 in SW 2.0 mph 4.0 mph 74 % 0.00 in
01:12 56.1 °F 48.4 °F 29.83 in SE 1.0 mph 4.0 mph 75 % 0.00 in
01:17 56.1 °F 48.4 °F 29.83 in SSW 2.0 mph 4.0 mph 75 % 0.00 in
01:22 55.9 °F 48.6 °F 29.83 in SSE 1.0 mph 4.0 mph 76 % 0.00 in
01:27 55.9 °F 48.6 °F 29.83 in Calm   3.0 mph 76 % 0.00 in
01:32 55.8 °F 48.7 °F 29.83 in Calm   3.0 mph 77 % 0.00 in
01:37 55.6 °F 48.6 °F 29.83 in Calm   2.0 mph 77 % 0.00 in
01:42 55.0 °F 48.4 °F 29.83 in Calm   1.0 mph 78 % 0.00 in
01:47 54.9 °F 48.2 °F 29.83 in Calm   1.0 mph 78 % 0.00 in
01:52 54.3 °F 48.0 °F 29.83 in Calm   1.0 mph 79 % 0.00 in
01:57 54.0 °F 48.0 °F 29.83 in Calm   1.0 mph 80 % 0.00 in
02:02 53.6 °F 47.7 °F 29.83 in Calm   1.0 mph 80 % 0.00 in
02:07 53.2 °F 47.5 °F 29.83 in Calm     81 % 0.00 in
02:12 52.9 °F 47.3 °F 29.83 in Calm   1.0 mph 81 % 0.00 in
02:17 52.5 °F 46.9 °F 29.82 in Calm   1.0 mph 81 % 0.00 in
02:19 52.3 °F 46.8 °F 29.82 in Calm   1.0 mph 81 % 0.00 in
02:23 52.0 °F 46.6 °F 29.82 in Calm   1.0 mph 82 % 0.00 in
02:28 51.6 °F 46.2 °F 29.82 in Calm   1.0 mph 82 % 0.00 in
02:33 51.4 °F 46.4 °F 29.82 in Calm   1.0 mph 83 % 0.00 in
02:38 51.3 °F 46.2 °F 29.82 in Calm     83 % 0.00 in
02:43 51.1 °F 46.4 °F 29.82 in Calm     84 % 0.00 in
02:48 50.7 °F 46.0 °F 29.82 in Calm     84 % 0.00 in
02:54 50.4 °F 45.7 °F 29.81 in Calm     84 % 0.00 in
02:59 50.4 °F 46.0 °F 29.81 in Calm     85 % 0.00 in
03:04 50.0 °F 45.7 °F 29.81 in Calm   1.0 mph 85 % 0.00 in
03:09 49.6 °F 45.7 °F 29.81 in Calm   1.0 mph 86 % 0.00 in
03:14 49.6 °F 45.7 °F 29.81 in Calm   1.0 mph 86 % 0.00 in
03:19 49.5 °F 45.7 °F 29.81 in Calm     87 % 0.00 in
03:24 49.3 °F 45.5 °F 29.81 in Calm     87 % 0.00 in
03:29 48.9 °F 45.1 °F 29.81 in Calm     87 % 0.00 in
03:34 48.7 °F 45.3 °F 29.81 in Calm     88 % 0.00 in
03:39 48.6 °F 45.1 °F 29.81 in Calm     88 % 0.00 in
03:44 48.7 °F 45.7 °F 29.80 in Calm   1.0 mph 89 % 0.00 in
03:49 48.6 °F 45.5 °F 29.80 in Calm   1.0 mph 89 % 0.00 in
03:54 48.6 °F 45.7 °F 29.80 in Calm   1.0 mph 90 % 0.00 in
03:59 48.4 °F 45.5 °F 29.80 in Calm     90 % 0.00 in
04:04 48.4 °F 45.5 °F 29.80 in Calm     90 % 0.00 in
04:09 48.6 °F 46.0 °F 29.80 in Calm     91 % 0.00 in
04:14 48.6 °F 46.4 °F 29.80 in Calm     92 % 0.00 in
04:19 48.9 °F 46.8 °F 29.79 in Calm     92 % 0.00 in
04:24 48.9 °F 46.8 °F 29.79 in Calm   1.0 mph 92 % 0.00 in
04:29 48.7 °F 46.6 °F 29.79 in Calm   1.0 mph 92 % 0.00 in
04:34 48.7 °F 46.6 °F 29.79 in Calm   1.0 mph 92 % 0.00 in
04:39 48.7 °F 46.6 °F 29.79 in Calm   1.0 mph 92 % 0.00 in
04:44 48.7 °F 46.6 °F 29.79 in Calm   1.0 mph 92 % 0.00 in
04:49 48.7 °F 46.6 °F 29.79 in Calm   1.0 mph 92 % 0.00 in
04:54 48.6 °F 46.6 °F 29.79 in Calm   1.0 mph 93 % 0.00 in
04:59 48.7 °F 47.1 °F 29.79 in Calm   1.0 mph 94 % 0.00 in
05:04 48.9 °F 47.3 °F 29.79 in Calm   1.0 mph 94 % 0.00 in
05:09 49.5 °F 47.8 °F 29.79 in Calm   1.0 mph 94 % 0.00 in
05:14 50.0 °F 48.6 °F 29.79 in Calm   1.0 mph 95 % 0.00 in
05:19 50.4 °F 48.7 °F 29.79 in Calm   1.0 mph 94 % 0.00 in
05:24 50.4 °F 48.7 °F 29.78 in Calm   1.0 mph 94 % 0.00 in
05:29 50.5 °F 49.1 °F 29.78 in Calm   1.0 mph 95 % 0.00 in
05:34 50.7 °F 49.3 °F 29.78 in Calm   1.0 mph 95 % 0.00 in
05:39 50.7 °F 49.3 °F 29.78 in Calm     95 % 0.00 in
05:44 51.1 °F 49.6 °F 29.78 in Calm     95 % 0.00 in
05:49 51.3 °F 49.8 °F 29.78 in Calm   1.0 mph 95 % 0.00 in
05:54 51.6 °F 50.5 °F 29.78 in Calm   1.0 mph 96 % 0.00 in
05:59 52.2 °F 51.1 °F 29.78 in Calm   1.0 mph 96 % 0.00 in
06:04 52.3 °F 51.3 °F 29.78 in Calm   2.0 mph 96 % 0.00 in
06:09 52.9 °F 51.8 °F 29.78 in Calm   2.0 mph 96 % 0.00 in
06:14 53.2 °F 52.2 °F 29.79 in Calm   2.0 mph 96 % 0.00 in
06:19 53.8 °F 52.7 °F 29.79 in SE 1.0 mph 2.0 mph 96 % 0.00 in
06:24 54.1 °F 53.1 °F 29.79 in East 1.0 mph 3.0 mph 96 % 0.00 in
06:29 54.3 °F 53.2 °F 29.79 in Calm   3.0 mph 96 % 0.00 in
06:34 54.3 °F 53.2 °F 29.79 in Calm   3.0 mph 96 % 0.00 in
06:40 54.7 °F 53.6 °F 29.78 in Calm   2.0 mph 96 % 0.00 in
06:45 54.9 °F 53.8 °F 29.78 in Calm   3.0 mph 96 % 0.00 in
06:50 55.2 °F 54.1 °F 29.78 in SE 3.0 mph 3.0 mph 96 % 0.00 in
06:55 55.6 °F 54.5 °F 29.78 in SE 1.0 mph 4.0 mph 96 % 0.00 in
07:00 55.9 °F 54.9 °F 29.78 in South 2.0 mph 4.0 mph 96 % 0.00 in
07:05 56.3 °F 55.2 °F 29.79 in SE 1.0 mph 5.0 mph 96 % 0.00 in
07:10 56.7 °F 55.6 °F 29.79 in South 1.0 mph 5.0 mph 96 % 0.00 in
07:15 56.8 °F 55.8 °F 29.79 in South 1.0 mph 5.0 mph 96 % 0.00 in
07:20 56.8 °F 55.8 °F 29.79 in SE 1.0 mph 5.0 mph 96 % 0.00 in
07:25 57.2 °F 56.1 °F 29.79 in South 2.0 mph 5.0 mph 96 % 0.00 in
07:30 57.4 °F 56.3 °F 29.79 in SE 4.0 mph 5.0 mph 96 % 0.00 in
07:35 57.6 °F 56.1 °F 29.79 in Calm   5.0 mph 95 % 0.00 in
07:40 57.9 °F 56.5 °F 29.80 in SE 1.0 mph 5.0 mph 95 % 0.00 in
07:45 58.3 °F 57.2 °F 29.80 in SSE 1.0 mph 5.0 mph 96 % 0.00 in
07:50 58.8 °F 57.4 °F 29.80 in SE 1.0 mph 4.0 mph 95 % 0.00 in
07:55 59.4 °F 57.9 °F 29.80 in SSE 1.0 mph 4.0 mph 95 % 0.00 in
08:00 59.7 °F 57.9 °F 29.80 in South 2.0 mph 4.0 mph 94 % 0.00 in
08:05 60.3 °F 58.5 °F 29.80 in SE 2.0 mph 5.0 mph 94 % 0.00 in
08:10 60.6 °F 58.8 °F 29.80 in SSE 2.0 mph 5.0 mph 94 % 0.00 in
08:15 61.2 °F 59.2 °F 29.80 in South 2.0 mph 5.0 mph 93 % 0.00 in
08:20 61.9 °F 59.9 °F 29.80 in South 3.0 mph 6.0 mph 93 % 0.00 in
08:25 62.4 °F 60.1 °F 29.80 in SSE 4.0 mph 9.0 mph 92 % 0.00 in
08:30 62.8 °F 60.1 °F 29.80 in SSW 7.0 mph 11.0 mph 91 % 0.00 in
08:35 63.1 °F 60.4 °F 29.80 in SSE 4.0 mph 11.0 mph 91 % 0.00 in
08:40 63.7 °F 61.0 °F 29.80 in SSW 6.0 mph 11.0 mph 91 % 0.00 in
08:45 64.4 °F 61.2 °F 29.80 in SSE 4.0 mph 11.0 mph 89 % 0.00 in
08:50 65.1 °F 61.9 °F 29.80 in SSW 10.0 mph 11.0 mph 89 % 0.00 in
08:55 65.7 °F 62.1 °F 29.80 in SSW 6.0 mph 11.0 mph 88 % 0.00 in
09:00 66.2 °F 62.2 °F 29.80 in SSE 2.0 mph 11.0 mph 87 % 0.00 in
09:05 66.9 °F 62.6 °F 29.81 in SSW 5.0 mph 12.0 mph 86 % 0.00 in
09:10 67.1 °F 62.4 °F 29.81 in SSW 5.0 mph 12.0 mph 85 % 0.00 in
09:15 67.5 °F 62.4 °F 29.81 in SSE 12.0 mph 12.0 mph 84 % 0.00 in
09:20 67.6 °F 62.6 °F 29.81 in ESE 4.0 mph 12.0 mph 84 % 0.00 in
09:25 68.2 °F 62.8 °F 29.81 in SSW 5.0 mph 13.0 mph 83 % 0.00 in
09:30 68.5 °F 63.1 °F 29.81 in South 7.0 mph 13.0 mph 83 % 0.00 in
09:35 69.1 °F 63.3 °F 29.81 in SW 6.0 mph 13.0 mph 82 % 0.00 in
09:40 69.3 °F 62.8 °F 29.81 in SE 6.0 mph 14.0 mph 80 % 0.00 in
09:45 69.6 °F 63.1 °F 29.81 in South 7.0 mph 15.0 mph 80 % 0.00 in
09:50 70.0 °F 63.1 °F 29.81 in SSW 11.0 mph 15.0 mph 79 % 0.00 in
09:55 70.3 °F 63.5 °F 29.82 in SSE 5.0 mph 15.0 mph 79 % 0.00 in
10:00 70.5 °F 63.0 °F 29.81 in SSE 6.0 mph 15.0 mph 77 % 0.00 in
10:05 70.9 °F 63.0 °F 29.82 in SE 13.0 mph 15.0 mph 76 % 0.00 in
10:10 71.2 °F 63.0 °F 29.82 in SE 7.0 mph 15.0 mph 75 % 0.00 in
10:15 71.4 °F 63.1 °F 29.82 in SSW 8.0 mph 16.0 mph 75 % 0.00 in
10:20 71.8 °F 62.6 °F 29.82 in SSW 8.0 mph 16.0 mph 73 % 0.00 in
10:25 72.0 °F 62.8 °F 29.82 in South 12.0 mph 16.0 mph 73 % 0.00 in
10:30 72.3 °F 63.1 °F 29.81 in SSE 7.0 mph 16.0 mph 73 % 0.00 in
10:35 72.1 °F 63.0 °F 29.82 in SE 12.0 mph 16.0 mph 73 % 0.00 in
10:40 72.3 °F 63.1 °F 29.82 in SSE 3.0 mph 13.0 mph 73 % 0.00 in
10:45 72.7 °F 63.1 °F 29.82 in SSE 8.0 mph 13.0 mph 72 % 0.00 in
10:50 72.9 °F 63.3 °F 29.82 in SSW 10.0 mph 13.0 mph 72 % 0.00 in
10:55 73.0 °F 63.1 °F 29.82 in South 11.0 mph 12.0 mph 71 % 0.00 in
11:00 73.4 °F 63.5 °F 29.82 in SE 8.0 mph 12.0 mph 71 % 0.00 in
11:05 73.9 °F 64.4 °F 29.82 in South 4.0 mph 13.0 mph 72 % 0.00 in
11:10 74.5 °F 63.7 °F 29.81 in SE 8.0 mph 13.0 mph 69 % 0.00 in
11:16 74.5 °F 63.7 °F 29.81 in SSE 4.0 mph 14.0 mph 69 % 0.00 in
11:21 75.0 °F 63.7 °F 29.81 in ESE 9.0 mph 14.0 mph 68 % 0.00 in
11:26 75.2 °F 63.5 °F 29.81 in South 5.0 mph 14.0 mph 67 % 0.00 in
11:31 75.7 °F 63.5 °F 29.81 in SSE 7.0 mph 12.0 mph 66 % 0.00 in
11:36 76.1 °F 63.0 °F 29.80 in SSW 3.0 mph 12.0 mph 64 % 0.00 in
11:41 76.3 °F 63.7 °F 29.80 in South 6.0 mph 12.0 mph 65 % 0.00 in
11:46 76.3 °F 63.1 °F 29.79 in SSE 9.0 mph 13.0 mph 64 % 0.00 in
11:51 76.1 °F 63.5 °F 29.79 in SE 8.0 mph 14.0 mph 65 % 0.00 in
11:56 76.5 °F 63.3 °F 29.79 in SE 4.0 mph 14.0 mph 64 % 0.00 in
12:01 76.6 °F 63.5 °F 29.79 in East 9.0 mph 14.0 mph 64 % 0.00 in
12:06 76.8 °F 63.3 °F 29.78 in ESE 8.0 mph 12.0 mph 63 % 0.00 in
12:11 76.8 °F 63.3 °F 29.78 in SSW 2.0 mph 12.0 mph 63 % 0.00 in
12:16 77.4 °F 62.8 °F 29.78 in SE 11.0 mph 12.0 mph 61 % 0.00 in
12:21 77.4 °F 63.3 °F 29.78 in SE 4.0 mph 13.0 mph 62 % 0.00 in
12:26 77.7 °F 63.1 °F 29.78 in SE 5.0 mph 13.0 mph 61 % 0.00 in
12:31 78.1 °F 64.0 °F 29.77 in South 5.0 mph 13.0 mph 62 % 0.00 in
12:36 78.8 °F 63.7 °F 29.77 in SSE 7.0 mph 10.0 mph 60 % 0.00 in
12:41 78.4 °F 63.0 °F 29.76 in SSW 6.0 mph 12.0 mph 59 % 0.00 in
12:46 78.4 °F 63.0 °F 29.76 in SE 10.0 mph 12.0 mph 59 % 0.00 in
12:51 78.6 °F 63.1 °F 29.76 in South 7.0 mph 14.0 mph 59 % 0.00 in
12:56 79.0 °F 63.0 °F 29.75 in SSW 8.0 mph 14.0 mph 58 % 0.00 in
13:01 79.2 °F 62.6 °F 29.75 in ESE 8.0 mph 14.0 mph 57 % 0.00 in
13:06 79.2 °F 62.1 °F 29.75 in ESE 10.0 mph 14.0 mph 56 % 0.00 in
13:11 79.5 °F 62.4 °F 29.74 in SSE 9.0 mph 14.0 mph 56 % 0.00 in
13:16 79.9 °F 62.8 °F 29.74 in SE 9.0 mph 14.0 mph 56 % 0.00 in
13:21 79.5 °F 61.9 °F 29.74 in SSE 8.0 mph 15.0 mph 55 % 0.00 in
13:26 79.5 °F 62.4 °F 29.73 in ESE 8.0 mph 15.0 mph 56 % 0.00 in
13:31 79.5 °F 60.8 °F 29.73 in SSE 9.0 mph 15.0 mph 53 % 0.00 in
13:36 79.5 °F 61.9 °F 29.73 in South 7.0 mph 16.0 mph 55 % 0.00 in
13:41 79.9 °F 62.2 °F 29.73 in SW 3.0 mph 16.0 mph 55 % 0.00 in
13:46 79.9 °F 62.2 °F 29.73 in SSW 2.0 mph 16.0 mph 55 % 0.00 in
13:51 80.4 °F 61.7 °F 29.73 in SSE 10.0 mph 14.0 mph 53 % 0.00 in
13:56 80.2 °F 61.5 °F 29.73 in SSE 7.0 mph 19.0 mph 53 % 0.00 in
14:01 80.4 °F 61.7 °F 29.72 in SSE 7.0 mph 19.0 mph 53 % 0.00 in
14:06 80.8 °F 62.1 °F 29.72 in SSE 6.0 mph 19.0 mph 53 % 0.00 in
14:11 81.0 °F 62.2 °F 29.72 in SSW 6.0 mph 16.0 mph 53 % 0.00 in
14:16 81.1 °F 61.9 °F 29.72 in SSE 6.0 mph 16.0 mph 52 % 0.00 in
14:21 81.0 °F 61.7 °F 29.71 in SSW 7.0 mph 16.0 mph 52 % 0.00 in
14:26 81.1 °F 61.9 °F 29.71 in SSE 3.0 mph 14.0 mph 52 % 0.00 in
14:31 81.5 °F 62.8 °F 29.71 in WSW 7.0 mph 14.0 mph 53 % 0.00 in
14:36 81.3 °F 62.6 °F 29.71 in South 7.0 mph 14.0 mph 53 % 0.00 in
14:42 81.5 °F 62.8 °F 29.71 in SW 10.0 mph 14.0 mph 53 % 0.00 in
14:47 81.0 °F 62.8 °F 29.71 in SSW 4.0 mph 15.0 mph 54 % 0.00 in
14:52 81.1 °F 63.0 °F 29.71 in SSE 6.0 mph 15.0 mph 54 % 0.00 in
14:57 81.0 °F 62.8 °F 29.70 in SW 8.0 mph 15.0 mph 54 % 0.00 in
15:02 81.0 °F 62.8 °F 29.70 in SSW 6.0 mph 15.0 mph 54 % 0.00 in
15:07 81.1 °F 61.9 °F 29.70 in South 8.0 mph 15.0 mph 52 % 0.00 in
15:12 81.1 °F 62.4 °F 29.70 in SSE 6.0 mph 14.0 mph 53 % 0.00 in
15:17 81.0 °F 62.8 °F 29.70 in SSW 3.0 mph 15.0 mph 54 % 0.00 in
15:22 81.1 °F 63.0 °F 29.70 in ESE 16.0 mph 16.0 mph 54 % 0.00 in
15:27 81.0 °F 62.8 °F 29.69 in South 8.0 mph 17.0 mph 54 % 0.00 in
15:32 80.8 °F 63.1 °F 29.70 in SSW 4.0 mph 17.0 mph 55 % 0.00 in
15:37 80.8 °F 62.6 °F 29.70 in SE 10.0 mph 17.0 mph 54 % 0.00 in
15:42 80.8 °F 63.1 °F 29.70 in SSW 5.0 mph 13.0 mph 55 % 0.00 in
15:47 80.8 °F 63.7 °F 29.69 in South 7.0 mph 12.0 mph 56 % 0.00 in
15:52 80.1 °F 63.5 °F 29.69 in SE 6.0 mph 12.0 mph 57 % 0.00 in
15:57 79.9 °F 63.9 °F 29.70 in SSE 11.0 mph 14.0 mph 58 % 0.00 in
16:02 79.3 °F 63.3 °F 29.70 in SSE 5.0 mph 17.0 mph 58 % 0.00 in
16:07 79.2 °F 63.7 °F 29.70 in SSE 11.0 mph 17.0 mph 59 % 0.00 in
16:12 79.0 °F 63.5 °F 29.70 in SSE 7.0 mph 17.0 mph 59 % 0.00 in
16:17 78.8 °F 63.7 °F 29.70 in SSE 6.0 mph 16.0 mph 60 % 0.00 in
16:22 78.6 °F 64.0 °F 29.70 in South 7.0 mph 16.0 mph 61 % 0.00 in
16:27 78.4 °F 64.4 °F 29.70 in South 10.0 mph 16.0 mph 62 % 0.00 in
16:32 78.3 °F 65.1 °F 29.70 in ESE 7.0 mph 16.0 mph 64 % 0.00 in
16:37 78.1 °F 65.3 °F 29.70 in SSE 8.0 mph 16.0 mph 65 % 0.00 in
16:42 77.7 °F 64.9 °F 29.70 in South 4.0 mph 14.0 mph 65 % 0.00 in
16:47 78.1 °F 65.8 °F 29.70 in South 8.0 mph 14.0 mph 66 % 0.00 in
16:52 77.5 °F 65.3 °F 29.70 in SE 7.0 mph 16.0 mph 66 % 0.00 in
16:57 77.2 °F 65.3 °F 29.70 in SSW 8.0 mph 16.0 mph 67 % 0.00 in
17:02 76.8 °F 65.5 °F 29.70 in SE 9.0 mph 16.0 mph 68 % 0.00 in
17:07 76.5 °F 65.1 °F 29.70 in SE 6.0 mph 13.0 mph 68 % 0.00 in
17:12 76.3 °F 65.3 °F 29.70 in South 7.0 mph 13.0 mph 69 % 0.00 in
17:17 76.1 °F 65.1 °F 29.70 in SE 7.0 mph 15.0 mph 69 % 0.00 in
17:22 75.7 °F 64.8 °F 29.70 in SE 7.0 mph 18.0 mph 69 % 0.00 in
17:27 75.4 °F 64.9 °F 29.70 in SE 9.0 mph 18.0 mph 70 % 0.00 in
17:32 75.0 °F 64.6 °F 29.70 in SSE 12.0 mph 18.0 mph 70 % 0.00 in
17:37 74.8 °F 64.8 °F 29.70 in South 9.0 mph 16.0 mph 71 % 0.00 in
17:42 74.5 °F 64.9 °F 29.69 in ESE 9.0 mph 16.0 mph 72 % 0.00 in
17:47 74.1 °F 64.9 °F 29.70 in ESE 8.0 mph 15.0 mph 73 % 0.00 in
17:52 73.9 °F 65.1 °F 29.70 in SE 6.0 mph 17.0 mph 74 % 0.00 in
17:57 73.6 °F 64.8 °F 29.70 in SSE 8.0 mph 17.0 mph 74 % 0.00 in
18:02 73.2 °F 64.8 °F 29.70 in SSW 4.0 mph 17.0 mph 75 % 0.00 in
18:07 73.0 °F 64.6 °F 29.70 in SE 6.0 mph 16.0 mph 75 % 0.00 in
18:12 72.9 °F 64.8 °F 29.70 in South 14.0 mph 14.0 mph 76 % 0.00 in
18:17 72.7 °F 64.8 °F 29.70 in SE 11.0 mph 17.0 mph 76 % 0.00 in
18:22 72.7 °F 65.1 °F 29.70 in SSE 6.0 mph 17.0 mph 77 % 0.00 in
18:27 72.3 °F 64.8 °F 29.70 in SSE 9.0 mph 17.0 mph 77 % 0.00 in
18:32 72.1 °F 64.6 °F 29.70 in South 5.0 mph 17.0 mph 77 % 0.00 in
18:37 72.1 °F 64.9 °F 29.71 in SSW 7.0 mph 14.0 mph 78 % 0.00 in
18:38 72.1 °F 64.9 °F 29.71 in SE 11.0 mph 14.0 mph 78 % 0.00 in
18:43 72.1 °F 64.9 °F 29.71 in South 7.0 mph 14.0 mph 78 % 0.00 in
18:48 72.0 °F 65.1 °F 29.71 in ESE 7.0 mph 14.0 mph 79 % 0.00 in
18:53 72.0 °F 65.5 °F 29.71 in South 8.0 mph 14.0 mph 80 % 0.00 in
18:58 71.8 °F 65.7 °F 29.71 in SSE 10.0 mph 14.0 mph 81 % 0.00 in
19:03 71.6 °F 65.5 °F 29.71 in SE 7.0 mph 14.0 mph 81 % 0.00 in
19:08 71.6 °F 65.5 °F 29.71 in SSE 12.0 mph 14.0 mph 81 % 0.00 in
19:13 71.6 °F 65.8 °F 29.71 in SE 7.0 mph 15.0 mph 82 % 0.00 in
19:18 71.6 °F 65.8 °F 29.71 in South 7.0 mph 16.0 mph 82 % 0.00 in
19:23 71.4 °F 66.0 °F 29.72 in South 8.0 mph 16.0 mph 83 % 0.00 in
19:28 71.2 °F 65.8 °F 29.72 in NE 6.0 mph 16.0 mph 83 % 0.00 in
19:33 71.2 °F 66.2 °F 29.72 in SSE 6.0 mph 15.0 mph 84 % 0.00 in
19:38 71.1 °F 66.0 °F 29.72 in South 8.0 mph 15.0 mph 84 % 0.00 in
19:43 70.9 °F 65.8 °F 29.72 in SE 3.0 mph 15.0 mph 84 % 0.00 in
19:48 70.9 °F 66.2 °F 29.72 in SE 8.0 mph 13.0 mph 85 % 0.00 in
19:53 70.7 °F 66.0 °F 29.72 in East 8.0 mph 13.0 mph 85 % 0.00 in
19:58 70.5 °F 66.2 °F 29.72 in SSW 9.0 mph 14.0 mph 86 % 0.00 in
20:03 70.5 °F 66.2 °F 29.73 in South 9.0 mph 14.0 mph 86 % 0.00 in
20:08 70.5 °F 66.2 °F 29.73 in SSE 12.0 mph 14.0 mph 86 % 0.00 in
20:18 70.5 °F 66.4 °F 29.73 in SSW 8.0 mph 15.0 mph 87 % 0.00 in
20:23 70.5 °F 66.4 °F 29.73 in SSE 7.0 mph 15.0 mph 87 % 0.00 in
20:28 70.5 °F 66.4 °F 29.73 in SSE 9.0 mph 14.0 mph 87 % 0.00 in
20:33 70.3 °F 66.2 °F 29.73 in SE 7.0 mph 14.0 mph 87 % 0.00 in
20:39 70.3 °F 66.2 °F 29.73 in SSE 7.0 mph 12.0 mph 87 % 0.00 in
20:44 70.3 °F 66.6 °F 29.72 in SSE 8.0 mph 11.0 mph 88 % 0.00 in
20:49 70.3 °F 66.6 °F 29.72 in SSE 12.0 mph 15.0 mph 88 % 0.00 in
20:54 70.2 °F 66.4 °F 29.72 in SSE 6.0 mph 15.0 mph 88 % 0.00 in
20:59 70.2 °F 66.4 °F 29.72 in SE 6.0 mph 15.0 mph 88 % 0.00 in
21:04 70.2 °F 66.4 °F 29.72 in SE 8.0 mph 15.0 mph 88 % 0.00 in
21:09 70.0 °F 66.2 °F 29.72 in South 9.0 mph 14.0 mph 88 % 0.00 in
21:14 69.8 °F 66.0 °F 29.72 in SE 5.0 mph 14.0 mph 88 % 0.00 in
21:19 69.6 °F 65.8 °F 29.72 in ESE 6.0 mph 14.0 mph 88 % 0.00 in
21:24 69.6 °F 66.2 °F 29.72 in South 7.0 mph 13.0 mph 89 % 0.00 in
21:29 69.4 °F 66.0 °F 29.72 in ESE 8.0 mph 13.0 mph 89 % 0.00 in
21:34 69.3 °F 65.8 °F 29.72 in ESE 8.0 mph 12.0 mph 89 % 0.00 in
21:39 69.3 °F 65.8 °F 29.72 in South 6.0 mph 11.0 mph 89 % 0.00 in
21:44 69.1 °F 66.0 °F 29.72 in SSE 6.0 mph 11.0 mph 90 % 0.00 in
21:49 69.1 °F 66.0 °F 29.72 in South 6.0 mph 13.0 mph 90 % 0.00 in
21:54 69.1 °F 66.0 °F 29.72 in ESE 9.0 mph 13.0 mph 90 % 0.00 in
21:59 69.1 °F 66.0 °F 29.72 in South 4.0 mph 13.0 mph 90 % 0.00 in
22:04 69.1 °F 66.0 °F 29.72 in SSE 6.0 mph 12.0 mph 90 % 0.00 in
22:09 69.1 °F 66.0 °F 29.72 in SSW 6.0 mph 12.0 mph 90 % 0.00 in
22:14 69.1 °F 66.0 °F 29.72 in SE 4.0 mph 12.0 mph 90 % 0.00 in
22:19 69.1 °F 66.0 °F 29.72 in SSE 6.0 mph 12.0 mph 90 % 0.00 in
22:24 69.1 °F 66.0 °F 29.73 in South 4.0 mph 12.0 mph 90 % 0.00 in
22:29 69.1 °F 66.0 °F 29.73 in South 3.0 mph 11.0 mph 90 % 0.00 in
22:34 69.1 °F 66.0 °F 29.73 in South 6.0 mph 11.0 mph 90 % 0.00 in
22:40 69.1 °F 66.0 °F 29.73 in SSE 5.0 mph 11.0 mph 90 % 0.00 in
22:45 69.1 °F 66.0 °F 29.73 in SSE 1.0 mph 10.0 mph 90 % 0.00 in
22:50 69.1 °F 66.0 °F 29.74 in SE 4.0 mph 10.0 mph 90 % 0.00 in
22:55 69.1 °F 66.0 °F 29.73 in SE 6.0 mph 10.0 mph 90 % 0.00 in
23:00 69.3 °F 66.2 °F 29.73 in SSW 5.0 mph 9.0 mph 90 % 0.00 in
23:05 69.3 °F 66.2 °F 29.73 in South 9.0 mph 9.0 mph 90 % 0.00 in
23:10 69.3 °F 65.8 °F 29.73 in SE 3.0 mph 10.0 mph 89 % 0.00 in
23:15 69.4 °F 66.0 °F 29.73 in SSW 4.0 mph 10.0 mph 89 % 0.00 in
23:20 69.4 °F 66.4 °F 29.73 in South 3.0 mph 10.0 mph 90 % 0.00 in
23:25 69.4 °F 66.4 °F 29.73 in South 5.0 mph 12.0 mph 90 % 0.00 in
Spring, Texas: Villages of Bridgestone
Compliments of Weather Underground - 2.75 mb

Script developed by  Jim McMurry - jmcmurry@mwt.net Adapted for the template by  Wim van der Kuil - Leuven-Template.eu

You find our weather info also at:

UK Metoffice

WeatherCloud

Weather Underground

Mid-South Weather Network

AWEKAS

Citizen Weather Observer Program (CWOP)

HAMweather, WeatherForYou, PWS Weather

Equipment we use:

Weather-station
Davis Vantage Vue

Weather-program
Meteohub

Weather-server
Debian 7.9 x86 (Guest)

Provider
DreamHost

Davis Vantage Vue

Meteohub

Debian 7.9 x86 (Guest)

DreamHost